sensor_id;sensor_type;location;lat;lon;timestamp;P1;durP1;ratioP1;P2;durP2;ratioP2
22565;SDS011;11449;51.330;19.378;2023-03-23T00:02:02;18.90;;;12.10;;
22565;SDS011;11449;51.330;19.378;2023-03-23T00:07:07;17.10;;;11.00;;
22565;SDS011;11449;51.330;19.378;2023-03-23T00:12:12;21.10;;;12.50;;
22565;SDS011;11449;51.330;19.378;2023-03-23T00:17:20;17.80;;;11.40;;
22565;SDS011;11449;51.330;19.378;2023-03-23T00:22:42;19.90;;;11.10;;
22565;SDS011;11449;51.330;19.378;2023-03-23T00:27:44;15.80;;;10.80;;
22565;SDS011;11449;51.330;19.378;2023-03-23T00:32:47;18.00;;;10.40;;
22565;SDS011;11449;51.330;19.378;2023-03-23T00:37:50;15.70;;;10.00;;
22565;SDS011;11449;51.330;19.378;2023-03-23T00:42:51;18.10;;;9.80;;
22565;SDS011;11449;51.330;19.378;2023-03-23T00:47:53;14.40;;;10.40;;
22565;SDS011;11449;51.330;19.378;2023-03-23T00:52:55;17.10;;;9.90;;
22565;SDS011;11449;51.330;19.378;2023-03-23T00:58:01;16.10;;;9.90;;
22565;SDS011;11449;51.330;19.378;2023-03-23T01:03:03;15.30;;;10.10;;
22565;SDS011;11449;51.330;19.378;2023-03-23T01:08:49;18.60;;;10.20;;
22565;SDS011;11449;51.330;19.378;2023-03-23T01:13:58;21.70;;;12.20;;
22565;SDS011;11449;51.330;19.378;2023-03-23T01:19:23;27.20;;;13.70;;
22565;SDS011;11449;51.330;19.378;2023-03-23T01:24:45;22.90;;;12.60;;
22565;SDS011;11449;51.330;19.378;2023-03-23T01:29:47;19.60;;;11.10;;
22565;SDS011;11449;51.330;19.378;2023-03-23T01:34:51;20.20;;;11.80;;
22565;SDS011;11449;51.330;19.378;2023-03-23T01:40:12;20.60;;;12.00;;
22565;SDS011;11449;51.330;19.378;2023-03-23T01:45:55;16.50;;;10.70;;
22565;SDS011;11449;51.330;19.378;2023-03-23T01:56:09;21.90;;;10.80;;
22565;SDS011;11449;51.330;19.378;2023-03-23T02:01:25;20.80;;;12.60;;
22565;SDS011;11449;51.330;19.378;2023-03-23T02:06:48;18.10;;;11.60;;
22565;SDS011;11449;51.330;19.378;2023-03-23T02:11:58;23.50;;;12.20;;
22565;SDS011;11449;51.330;19.378;2023-03-23T02:17:04;19.30;;;11.60;;
22565;SDS011;11449;51.330;19.378;2023-03-23T02:27:31;20.00;;;11.00;;
22565;SDS011;11449;51.330;19.378;2023-03-23T02:37:51;20.00;;;12.30;;
22565;SDS011;11449;51.330;19.378;2023-03-23T02:42:57;17.60;;;10.60;;
22565;SDS011;11449;51.330;19.378;2023-03-23T02:48:00;24.00;;;12.40;;
22565;SDS011;11449;51.330;19.378;2023-03-23T02:53:06;24.80;;;14.10;;
22565;SDS011;11449;51.330;19.378;2023-03-23T02:58:12;17.40;;;11.20;;
22565;SDS011;11449;51.330;19.378;2023-03-23T03:03:18;19.20;;;11.20;;
22565;SDS011;11449;51.330;19.378;2023-03-23T03:08:26;18.20;;;10.70;;
22565;SDS011;11449;51.330;19.378;2023-03-23T03:24:03;19.90;;;13.60;;
22565;SDS011;11449;51.330;19.378;2023-03-23T03:29:05;21.70;;;14.40;;
22565;SDS011;11449;51.330;19.378;2023-03-23T03:34:18;27.40;;;15.20;;
22565;SDS011;11449;51.330;19.378;2023-03-23T03:39:24;18.40;;;12.70;;
22565;SDS011;11449;51.330;19.378;2023-03-23T03:44:47;22.90;;;13.00;;
22565;SDS011;11449;51.330;19.378;2023-03-23T03:49:48;21.50;;;14.00;;
22565;SDS011;11449;51.330;19.378;2023-03-23T03:54:50;22.00;;;12.60;;
22565;SDS011;11449;51.330;19.378;2023-03-23T03:59:52;20.60;;;13.10;;
22565;SDS011;11449;51.330;19.378;2023-03-23T04:05:13;19.40;;;12.40;;
22565;SDS011;11449;51.330;19.378;2023-03-23T04:10:15;31.10;;;16.90;;
22565;SDS011;11449;51.330;19.378;2023-03-23T04:15:18;30.20;;;16.30;;
22565;SDS011;11449;51.330;19.378;2023-03-23T04:20:20;48.80;;;20.40;;
22565;SDS011;11449;51.330;19.378;2023-03-23T04:25:24;74.90;;;26.20;;
22565;SDS011;11449;51.330;19.378;2023-03-23T04:30:31;81.10;;;17.90;;
22565;SDS011;11449;51.330;19.378;2023-03-23T04:35:38;94.10;;;31.00;;
22565;SDS011;11449;51.330;19.378;2023-03-23T04:41:01;91.40;;;59.40;;
22565;SDS011;11449;51.330;19.378;2023-03-23T04:46:20;97.60;;;61.10;;
22565;SDS011;11449;51.330;19.378;2023-03-23T04:51:33;154.10;;;109.10;;
22565;SDS011;11449;51.330;19.378;2023-03-23T04:57:10;131.50;;;102.10;;
22565;SDS011;11449;51.330;19.378;2023-03-23T05:02:35;131.50;;;102.70;;
22565;SDS011;11449;51.330;19.378;2023-03-23T05:07:36;125.00;;;83.60;;
22565;SDS011;11449;51.330;19.378;2023-03-23T05:12:43;136.00;;;95.00;;
22565;SDS011;11449;51.330;19.378;2023-03-23T05:17:46;157.00;;;116.70;;
22565;SDS011;11449;51.330;19.378;2023-03-23T05:22:53;138.60;;;119.60;;
22565;SDS011;11449;51.330;19.378;2023-03-23T05:28:10;145.70;;;102.50;;
22565;SDS011;11449;51.330;19.378;2023-03-23T05:33:24;150.90;;;127.60;;
22565;SDS011;11449;51.330;19.378;2023-03-23T05:38:44;224.40;;;194.20;;
22565;SDS011;11449;51.330;19.378;2023-03-23T05:43:52;314.20;;;281.70;;
22565;SDS011;11449;51.330;19.378;2023-03-23T05:48:58;156.80;;;77.70;;
22565;SDS011;11449;51.330;19.378;2023-03-23T05:54:07;95.40;;;52.10;;
22565;SDS011;11449;51.330;19.378;2023-03-23T05:59:11;81.00;;;28.90;;
22565;SDS011;11449;51.330;19.378;2023-03-23T06:04:13;117.20;;;43.70;;
22565;SDS011;11449;51.330;19.378;2023-03-23T06:14:59;25.30;;;14.70;;
22565;SDS011;11449;51.330;19.378;2023-03-23T06:20:23;20.10;;;13.00;;
22565;SDS011;11449;51.330;19.378;2023-03-23T06:25:29;20.60;;;13.70;;
22565;SDS011;11449;51.330;19.378;2023-03-23T06:30:32;27.70;;;17.20;;
22565;SDS011;11449;51.330;19.378;2023-03-23T06:41:11;19.90;;;11.60;;
22565;SDS011;11449;51.330;19.378;2023-03-23T06:46:36;20.70;;;13.90;;
22565;SDS011;11449;51.330;19.378;2023-03-23T06:52:10;18.60;;;11.80;;
22565;SDS011;11449;51.330;19.378;2023-03-23T06:57:16;23.80;;;15.70;;
22565;SDS011;11449;51.330;19.378;2023-03-23T07:02:21;19.40;;;11.20;;
22565;SDS011;11449;51.330;19.378;2023-03-23T07:07:26;15.10;;;10.10;;
22565;SDS011;11449;51.330;19.378;2023-03-23T07:12:46;20.00;;;12.10;;
22565;SDS011;11449;51.330;19.378;2023-03-23T07:17:52;17.50;;;10.60;;
22565;SDS011;11449;51.330;19.378;2023-03-23T07:23:12;19.00;;;10.60;;
22565;SDS011;11449;51.330;19.378;2023-03-23T07:28:34;11.60;;;8.90;;
22565;SDS011;11449;51.330;19.378;2023-03-23T07:33:49;17.20;;;8.70;;
22565;SDS011;11449;51.330;19.378;2023-03-23T07:49:48;12.20;;;8.40;;
22565;SDS011;11449;51.330;19.378;2023-03-23T07:55:52;11.70;;;7.20;;
22565;SDS011;11449;51.330;19.378;2023-03-23T08:01:40;10.60;;;6.80;;
22565;SDS011;11449;51.330;19.378;2023-03-23T08:13:15;10.30;;;6.80;;
22565;SDS011;11449;51.330;19.378;2023-03-23T08:18:32;8.10;;;6.50;;
22565;SDS011;11449;51.330;19.378;2023-03-23T08:23:59;11.30;;;8.90;;
22565;SDS011;11449;51.330;19.378;2023-03-23T08:29:28;12.10;;;6.40;;
22565;SDS011;11449;51.330;19.378;2023-03-23T08:40:43;11.20;;;7.10;;
22565;SDS011;11449;51.330;19.378;2023-03-23T08:46:13;8.50;;;5.70;;
22565;SDS011;11449;51.330;19.378;2023-03-23T09:04:23;6.80;;;4.40;;
22565;SDS011;11449;51.330;19.378;2023-03-23T09:22:04;6.40;;;4.30;;
22565;SDS011;11449;51.330;19.378;2023-03-23T09:39:17;8.30;;;4.40;;
22565;SDS011;11449;51.330;19.378;2023-03-23T09:44:51;7.10;;;4.40;;
22565;SDS011;11449;51.330;19.378;2023-03-23T09:50:25;9.20;;;5.00;;
22565;SDS011;11449;51.330;19.378;2023-03-23T09:55:51;10.30;;;5.70;;
22565;SDS011;11449;51.330;19.378;2023-03-23T10:12:38;9.60;;;6.20;;
22565;SDS011;11449;51.330;19.378;2023-03-23T10:30:24;7.20;;;4.40;;
22565;SDS011;11449;51.330;19.378;2023-03-23T10:52:34;9.00;;;5.20;;
22565;SDS011;11449;51.330;19.378;2023-03-23T11:08:53;8.00;;;4.60;;
22565;SDS011;11449;51.330;19.378;2023-03-23T11:19:43;6.80;;;4.30;;
22565;SDS011;11449;51.330;19.378;2023-03-23T11:24:49;10.70;;;4.30;;
22565;SDS011;11449;51.330;19.378;2023-03-23T11:30:10;6.70;;;3.00;;
22565;SDS011;11449;51.330;19.378;2023-03-23T11:35:17;6.40;;;2.70;;
22565;SDS011;11449;51.330;19.378;2023-03-23T11:57:10;5.80;;;2.40;;
22565;SDS011;11449;51.330;19.378;2023-03-23T12:32:04;4.90;;;1.90;;
22565;SDS011;11449;51.330;19.378;2023-03-23T12:55:42;5.50;;;3.30;;
22565;SDS011;11449;51.330;19.378;2023-03-23T13:12:14;3.00;;;2.00;;
22565;SDS011;11449;51.330;19.378;2023-03-23T13:18:03;3.90;;;1.50;;
22565;SDS011;11449;51.330;19.378;2023-03-23T13:35:11;8.80;;;3.70;;
22565;SDS011;11449;51.330;19.378;2023-03-23T13:40:40;2.80;;;2.00;;
22565;SDS011;11449;51.330;19.378;2023-03-23T13:57:56;17.60;;;9.70;;
22565;SDS011;11449;51.330;19.378;2023-03-23T14:14:31;4.50;;;2.60;;
22565;SDS011;11449;51.330;19.378;2023-03-23T14:19:38;10.20;;;5.60;;
22565;SDS011;11449;51.330;19.378;2023-03-23T14:24:40;4.30;;;2.40;;
22565;SDS011;11449;51.330;19.378;2023-03-23T14:35:21;3.00;;;2.10;;
22565;SDS011;11449;51.330;19.378;2023-03-23T14:40:25;4.20;;;1.80;;
22565;SDS011;11449;51.330;19.378;2023-03-23T14:45:43;5.60;;;3.30;;
22565;SDS011;11449;51.330;19.378;2023-03-23T14:51:01;4.70;;;3.20;;
22565;SDS011;11449;51.330;19.378;2023-03-23T14:56:09;4.10;;;2.80;;
22565;SDS011;11449;51.330;19.378;2023-03-23T15:06:39;8.50;;;3.90;;
22565;SDS011;11449;51.330;19.378;2023-03-23T15:18:02;4.30;;;2.40;;
22565;SDS011;11449;51.330;19.378;2023-03-23T15:28:32;5.30;;;3.30;;
22565;SDS011;11449;51.330;19.378;2023-03-23T15:58:47;4.70;;;2.30;;
22565;SDS011;11449;51.330;19.378;2023-03-23T16:33:21;18.20;;;11.90;;
22565;SDS011;11449;51.330;19.378;2023-03-23T16:38:47;9.00;;;4.70;;
22565;SDS011;11449;51.330;19.378;2023-03-23T16:49:42;5.90;;;3.50;;
22565;SDS011;11449;51.330;19.378;2023-03-23T16:54:50;11.30;;;4.90;;
22565;SDS011;11449;51.330;19.378;2023-03-23T16:59:58;17.80;;;8.00;;
22565;SDS011;11449;51.330;19.378;2023-03-23T17:05:07;17.60;;;7.60;;
22565;SDS011;11449;51.330;19.378;2023-03-23T17:10:15;16.10;;;7.80;;
22565;SDS011;11449;51.330;19.378;2023-03-23T17:15:41;13.80;;;6.70;;
22565;SDS011;11449;51.330;19.378;2023-03-23T17:21:13;13.80;;;6.70;;
22565;SDS011;11449;51.330;19.378;2023-03-23T17:26:21;18.90;;;8.50;;
22565;SDS011;11449;51.330;19.378;2023-03-23T17:31:29;11.70;;;6.00;;
22565;SDS011;11449;51.330;19.378;2023-03-23T17:36:38;14.60;;;8.00;;
22565;SDS011;11449;51.330;19.378;2023-03-23T17:41:47;21.80;;;8.40;;
22565;SDS011;11449;51.330;19.378;2023-03-23T17:47:17;54.60;;;22.50;;
22565;SDS011;11449;51.330;19.378;2023-03-23T17:52:28;68.80;;;19.90;;
22565;SDS011;11449;51.330;19.378;2023-03-23T17:57:36;58.90;;;19.10;;
22565;SDS011;11449;51.330;19.378;2023-03-23T18:02:45;50.60;;;17.90;;
22565;SDS011;11449;51.330;19.378;2023-03-23T18:07:53;15.30;;;6.80;;
22565;SDS011;11449;51.330;19.378;2023-03-23T18:13:37;18.40;;;9.10;;
22565;SDS011;11449;51.330;19.378;2023-03-23T18:19:04;23.50;;;9.20;;
22565;SDS011;11449;51.330;19.378;2023-03-23T18:24:35;24.90;;;12.00;;
22565;SDS011;11449;51.330;19.378;2023-03-23T18:29:50;22.30;;;8.30;;
22565;SDS011;11449;51.330;19.378;2023-03-23T18:35:26;30.80;;;9.00;;
22565;SDS011;11449;51.330;19.378;2023-03-23T18:41:01;21.40;;;7.80;;
22565;SDS011;11449;51.330;19.378;2023-03-23T18:46:22;30.50;;;11.70;;
22565;SDS011;11449;51.330;19.378;2023-03-23T18:51:59;48.60;;;14.90;;
22565;SDS011;11449;51.330;19.378;2023-03-23T18:57:11;41.00;;;13.90;;
22565;SDS011;11449;51.330;19.378;2023-03-23T19:02:55;43.30;;;15.30;;
22565;SDS011;11449;51.330;19.378;2023-03-23T19:08:25;35.50;;;13.10;;
22565;SDS011;11449;51.330;19.378;2023-03-23T19:13:45;15.90;;;8.30;;
22565;SDS011;11449;51.330;19.378;2023-03-23T19:18:59;26.70;;;11.10;;
22565;SDS011;11449;51.330;19.378;2023-03-23T19:24:34;17.00;;;7.70;;
22565;SDS011;11449;51.330;19.378;2023-03-23T19:35:37;16.60;;;6.90;;
22565;SDS011;11449;51.330;19.378;2023-03-23T19:41:12;13.90;;;7.30;;
22565;SDS011;11449;51.330;19.378;2023-03-23T19:46:24;15.00;;;9.10;;
22565;SDS011;11449;51.330;19.378;2023-03-23T19:51:37;15.10;;;7.10;;
22565;SDS011;11449;51.330;19.378;2023-03-23T19:56:47;15.70;;;7.30;;
22565;SDS011;11449;51.330;19.378;2023-03-23T20:07:09;12.80;;;6.70;;
22565;SDS011;11449;51.330;19.378;2023-03-23T20:12:27;13.60;;;6.10;;
22565;SDS011;11449;51.330;19.378;2023-03-23T20:17:42;12.50;;;6.20;;
22565;SDS011;11449;51.330;19.378;2023-03-23T20:23:20;11.30;;;6.10;;
22565;SDS011;11449;51.330;19.378;2023-03-23T20:34:20;10.60;;;5.50;;
22565;SDS011;11449;51.330;19.378;2023-03-23T20:40:07;9.90;;;5.70;;
22565;SDS011;11449;51.330;19.378;2023-03-23T20:51:58;15.10;;;6.40;;
22565;SDS011;11449;51.330;19.378;2023-03-23T21:03:39;15.40;;;6.40;;
22565;SDS011;11449;51.330;19.378;2023-03-23T21:09:08;13.60;;;5.40;;
22565;SDS011;11449;51.330;19.378;2023-03-23T21:14:19;10.40;;;5.50;;
22565;SDS011;11449;51.330;19.378;2023-03-23T21:19:30;11.90;;;5.70;;
22565;SDS011;11449;51.330;19.378;2023-03-23T21:24:40;13.40;;;6.80;;
22565;SDS011;11449;51.330;19.378;2023-03-23T21:36:06;10.70;;;5.30;;
22565;SDS011;11449;51.330;19.378;2023-03-23T21:41:40;11.10;;;5.00;;
22565;SDS011;11449;51.330;19.378;2023-03-23T21:47:21;10.80;;;5.70;;
22565;SDS011;11449;51.330;19.378;2023-03-23T21:52:57;11.80;;;5.90;;
22565;SDS011;11449;51.330;19.378;2023-03-23T21:58:23;14.50;;;6.40;;
22565;SDS011;11449;51.330;19.378;2023-03-23T22:04:02;14.80;;;8.00;;
22565;SDS011;11449;51.330;19.378;2023-03-23T22:09:35;10.90;;;5.50;;
22565;SDS011;11449;51.330;19.378;2023-03-23T22:14:59;8.80;;;5.20;;
22565;SDS011;11449;51.330;19.378;2023-03-23T22:20:13;9.60;;;5.00;;
22565;SDS011;11449;51.330;19.378;2023-03-23T22:25:48;8.80;;;4.90;;
22565;SDS011;11449;51.330;19.378;2023-03-23T22:31:07;9.60;;;4.40;;
22565;SDS011;11449;51.330;19.378;2023-03-23T22:37:00;10.10;;;5.90;;
22565;SDS011;11449;51.330;19.378;2023-03-23T22:47:34;15.50;;;6.50;;
22565;SDS011;11449;51.330;19.378;2023-03-23T22:58:23;10.00;;;5.90;;
22565;SDS011;11449;51.330;19.378;2023-03-23T23:03:56;10.70;;;5.10;;
22565;SDS011;11449;51.330;19.378;2023-03-23T23:09:05;14.40;;;6.40;;
22565;SDS011;11449;51.330;19.378;2023-03-23T23:14:13;23.10;;;10.40;;
22565;SDS011;11449;51.330;19.378;2023-03-23T23:19:17;33.80;;;15.20;;
22565;SDS011;11449;51.330;19.378;2023-03-23T23:29:59;13.40;;;7.40;;
22565;SDS011;11449;51.330;19.378;2023-03-23T23:35:17;11.30;;;5.50;;
22565;SDS011;11449;51.330;19.378;2023-03-23T23:40:32;12.60;;;6.60;;
22565;SDS011;11449;51.330;19.378;2023-03-23T23:46:24;10.60;;;6.60;;
22565;SDS011;11449;51.330;19.378;2023-03-23T23:51:37;10.30;;;5.80;;
22565;SDS011;11449;51.330;19.378;2023-03-23T23:56:58;10.10;;;5.60;;
